sensor_id;sensor_type;location;lat;lon;timestamp;pressure;altitude;pressure_sealevel;temperature;humidity
16100;BME280;8154;50.830;12.082;2023-04-20T00:21:51;99614.13;;;23.04;39.90
16100;BME280;8154;50.830;12.082;2023-04-20T00:24:17;99620.75;;;23.08;39.86
16100;BME280;8154;50.830;12.082;2023-04-20T00:26:44;99613.75;;;23.07;39.80
16100;BME280;8154;50.830;12.082;2023-04-20T00:29:10;99619.72;;;23.09;39.76
16100;BME280;8154;50.830;12.082;2023-04-20T00:31:39;99608.78;;;23.04;39.87
16100;BME280;8154;50.830;12.082;2023-04-20T00:34:06;99618.19;;;23.00;40.34
16100;BME280;8154;50.830;12.082;2023-04-20T00:36:32;99616.75;;;22.97;40.06
16100;BME280;8154;50.830;12.082;2023-04-20T00:38:58;99622.50;;;23.01;39.98
16100;BME280;8154;50.830;12.082;2023-04-20T00:41:24;99616.59;;;23.05;39.80
16100;BME280;8154;50.830;12.082;2023-04-20T00:43:51;99618.19;;;23.00;40.05
16100;BME280;8154;50.830;12.082;2023-04-20T00:46:19;99616.00;;;22.89;40.35
16100;BME280;8154;50.830;12.082;2023-04-20T00:48:49;99622.00;;;22.91;40.10
16100;BME280;8154;50.830;12.082;2023-04-20T00:51:21;99615.72;;;22.98;39.94
16100;BME280;8154;50.830;12.082;2023-04-20T00:53:48;99619.72;;;23.09;39.76
16100;BME280;8154;50.830;12.082;2023-04-20T00:56:29;99613.81;;;23.13;39.67
16100;BME280;8154;50.830;12.082;2023-04-20T00:58:56;99612.00;;;23.14;39.60
16100;BME280;8154;50.830;12.082;2023-04-20T01:01:32;99609.97;;;23.16;39.50
16100;BME280;8154;50.830;12.082;2023-04-20T01:04:01;99608.69;;;23.12;39.72
16100;BME280;8154;50.830;12.082;2023-04-20T01:06:32;99607.41;;;23.08;39.68
16100;BME280;8154;50.830;12.082;2023-04-20T01:08:59;99600.78;;;23.04;39.64
16100;BME280;8154;50.830;12.082;2023-04-20T01:11:27;99602.78;;;22.95;39.70
16100;BME280;8154;50.830;12.082;2023-04-20T01:13:54;99597.44;;;22.95;39.90
16100;BME280;8154;50.830;12.082;2023-04-20T01:16:22;99603.91;;;22.86;40.10
16100;BME280;8154;50.830;12.082;2023-04-20T01:18:51;99595.44;;;22.83;40.22
16100;BME280;8154;50.830;12.082;2023-04-20T02:22:39;99579.34;;;23.12;38.94
16100;BME280;8154;50.830;12.082;2023-04-20T02:25:05;99576.31;;;22.94;39.46
16100;BME280;8154;50.830;12.082;2023-04-20T02:27:32;99574.41;;;22.88;39.67
16100;BME280;8154;50.830;12.082;2023-04-20T02:29:58;99573.75;;;22.86;39.68
16100;BME280;8154;50.830;12.082;2023-04-20T02:32:25;99572.72;;;22.87;39.72
16100;BME280;8154;50.830;12.082;2023-04-20T02:34:51;99575.19;;;22.88;39.44
16100;BME280;8154;50.830;12.082;2023-04-20T02:37:18;99572.91;;;22.85;39.46
16100;BME280;8154;50.830;12.082;2023-04-20T02:39:44;99572.50;;;22.82;39.61
16100;BME280;8154;50.830;12.082;2023-04-20T02:42:10;99573.28;;;22.82;39.70
16100;BME280;8154;50.830;12.082;2023-04-20T02:44:36;99572.31;;;22.83;39.37
16100;BME280;8154;50.830;12.082;2023-04-20T02:47:02;99568.50;;;22.92;39.21
16100;BME280;8154;50.830;12.082;2023-04-20T02:49:28;99577.19;;;23.01;39.34
16100;BME280;8154;50.830;12.082;2023-04-20T02:51:54;99575.44;;;23.08;39.06
16100;BME280;8154;50.830;12.082;2023-04-20T02:54:20;99575.53;;;23.00;39.08
16100;BME280;8154;50.830;12.082;2023-04-20T02:56:46;99571.91;;;22.86;39.56
16100;BME280;8154;50.830;12.082;2023-04-20T02:59:12;99572.16;;;22.91;39.25
16100;BME280;8154;50.830;12.082;2023-04-20T03:01:38;99571.28;;;23.05;39.13
16100;BME280;8154;50.830;12.082;2023-04-20T03:04:04;99573.38;;;23.10;39.12
16100;BME280;8154;50.830;12.082;2023-04-20T03:06:31;99569.44;;;23.06;38.84
16100;BME280;8154;50.830;12.082;2023-04-20T03:08:57;99570.84;;;23.02;38.95
16100;BME280;8154;50.830;12.082;2023-04-20T03:11:25;99566.28;;;22.96;39.04
16100;BME280;8154;50.830;12.082;2023-04-20T03:13:53;99568.03;;;22.89;39.32
16100;BME280;8154;50.830;12.082;2023-04-20T03:16:19;99565.31;;;22.82;39.35
16100;BME280;8154;50.830;12.082;2023-04-20T03:18:45;99564.50;;;22.82;39.50
16100;BME280;8154;50.830;12.082;2023-04-20T03:21:11;99570.22;;;23.00;38.98
16100;BME280;8154;50.830;12.082;2023-04-20T03:23:38;99565.91;;;22.99;39.25
16100;BME280;8154;50.830;12.082;2023-04-20T03:26:04;99564.13;;;23.06;39.01
16100;BME280;8154;50.830;12.082;2023-04-20T03:28:30;99562.09;;;23.08;38.88
16100;BME280;8154;50.830;12.082;2023-04-20T03:30:56;99567.22;;;22.88;39.33
16100;BME280;8154;50.830;12.082;2023-04-20T03:33:22;99557.31;;;22.82;39.34
16100;BME280;8154;50.830;12.082;2023-04-20T03:35:48;99558.28;;;22.96;39.23
16100;BME280;8154;50.830;12.082;2023-04-20T03:38:14;99559.63;;;23.06;38.72
16100;BME280;8154;50.830;12.082;2023-04-20T03:40:40;99557.00;;;22.92;39.24
16100;BME280;8154;50.830;12.082;2023-04-20T03:43:06;99557.31;;;22.82;39.34
16100;BME280;8154;50.830;12.082;2023-04-20T03:45:32;99570.25;;;22.85;39.12
16100;BME280;8154;50.830;12.082;2023-04-20T03:47:58;99558.41;;;22.88;39.30
16100;BME280;8154;50.830;12.082;2023-04-20T03:50:24;99558.84;;;22.91;39.18
16100;BME280;8154;50.830;12.082;2023-04-20T03:52:50;99563.16;;;22.92;39.03
16100;BME280;8154;50.830;12.082;2023-04-20T03:55:16;99565.88;;;22.77;39.24
16100;BME280;8154;50.830;12.082;2023-04-20T03:57:42;99562.75;;;22.74;39.36
16100;BME280;8154;50.830;12.082;2023-04-20T04:00:09;99564.72;;;22.87;39.11
16100;BME280;8154;50.830;12.082;2023-04-20T04:02:38;99567.94;;;22.97;39.09
16100;BME280;8154;50.830;12.082;2023-04-20T04:05:04;99563.47;;;23.04;38.80
16100;BME280;8154;50.830;12.082;2023-04-20T04:07:30;99560.63;;;23.05;38.87
16100;BME280;8154;50.830;12.082;2023-04-20T04:09:56;99563.75;;;23.09;38.75
16100;BME280;8154;50.830;12.082;2023-04-20T04:12:22;99570.16;;;23.14;38.33
16100;BME280;8154;50.830;12.082;2023-04-20T04:14:48;99561.31;;;22.93;38.81
16100;BME280;8154;50.830;12.082;2023-04-20T04:17:14;99558.59;;;22.86;39.11
16100;BME280;8154;50.830;12.082;2023-04-20T04:19:40;99564.50;;;22.82;39.10
16100;BME280;8154;50.830;12.082;2023-04-20T04:22:08;99562.34;;;22.92;38.89
16100;BME280;8154;50.830;12.082;2023-04-20T04:24:34;99565.53;;;23.02;38.62
16100;BME280;8154;50.830;12.082;2023-04-20T04:27:02;99563.66;;;23.02;38.61
16100;BME280;8154;50.830;12.082;2023-04-20T04:29:30;99566.81;;;22.91;38.96
16100;BME280;8154;50.830;12.082;2023-04-20T04:31:56;99566.31;;;22.81;39.16
16100;BME280;8154;50.830;12.082;2023-04-20T04:34:23;99565.13;;;22.84;39.09
16100;BME280;8154;50.830;12.082;2023-04-20T04:36:54;99569.38;;;22.99;38.67
16100;BME280;8154;50.830;12.082;2023-04-20T04:39:20;99571.84;;;23.01;38.66
16100;BME280;8154;50.830;12.082;2023-04-20T04:41:47;99574.22;;;23.10;38.33
16100;BME280;8154;50.830;12.082;2023-04-20T04:44:13;99571.25;;;22.99;38.76
16100;BME280;8154;50.830;12.082;2023-04-20T04:46:40;99574.59;;;22.86;38.96
16100;BME280;8154;50.830;12.082;2023-04-20T04:49:06;99570.00;;;22.80;39.11
16100;BME280;8154;50.830;12.082;2023-04-20T04:51:32;99574.97;;;22.83;39.06
16100;BME280;8154;50.830;12.082;2023-04-20T04:53:58;99578.44;;;22.84;39.07
16100;BME280;8154;50.830;12.082;2023-04-20T04:56:25;99573.06;;;22.77;39.08
16100;BME280;8154;50.830;12.082;2023-04-20T04:58:52;99574.06;;;22.76;39.26
16100;BME280;8154;50.830;12.082;2023-04-20T05:01:18;99569.50;;;22.91;38.77
16100;BME280;8154;50.830;12.082;2023-04-20T05:03:44;99573.25;;;22.97;38.79
16100;BME280;8154;50.830;12.082;2023-04-20T05:06:10;99578.66;;;23.03;38.71
16100;BME280;8154;50.830;12.082;2023-04-20T05:08:36;99574.97;;;23.04;38.60
16100;BME280;8154;50.830;12.082;2023-04-20T05:11:02;99585.44;;;22.85;38.93
16100;BME280;8154;50.830;12.082;2023-04-20T05:13:28;99580.22;;;22.77;39.19
16100;BME280;8154;50.830;12.082;2023-04-20T05:15:54;99574.97;;;22.83;39.02
16100;BME280;8154;50.830;12.082;2023-04-20T05:18:20;99576.78;;;22.83;38.92
16100;BME280;8154;50.830;12.082;2023-04-20T05:20:46;99576.91;;;22.74;39.16
16100;BME280;8154;50.830;12.082;2023-04-20T05:23:12;99580.59;;;22.73;39.24
16100;BME280;8154;50.830;12.082;2023-04-20T05:25:38;99588.53;;;22.88;38.77
16100;BME280;8154;50.830;12.082;2023-04-20T05:28:05;99575.09;;;22.96;38.41
16100;BME280;8154;50.830;12.082;2023-04-20T05:30:34;99579.03;;;23.00;38.50
16100;BME280;8154;50.830;12.082;2023-04-20T05:33:02;99586.47;;;23.05;38.42
16100;BME280;8154;50.830;12.082;2023-04-20T05:35:29;99590.38;;;22.88;38.92
16100;BME280;8154;50.830;12.082;2023-04-20T05:37:56;99588.47;;;22.82;39.17
16100;BME280;8154;50.830;12.082;2023-04-20T05:40:25;99591.09;;;22.96;38.74
16100;BME280;8154;50.830;12.082;2023-04-20T05:42:53;99604.03;;;22.99;38.61
16100;BME280;8154;50.830;12.082;2023-04-20T05:45:19;99602.88;;;22.87;38.77
16100;BME280;8154;50.830;12.082;2023-04-20T05:47:52;99610.16;;;22.79;39.02
16100;BME280;8154;50.830;12.082;2023-04-20T05:50:19;99611.16;;;22.77;39.15
16100;BME280;8154;50.830;12.082;2023-04-20T05:52:45;99616.50;;;22.77;39.02
16100;BME280;8154;50.830;12.082;2023-04-20T05:55:11;99624.22;;;22.72;39.15
16100;BME280;8154;50.830;12.082;2023-04-20T05:57:37;99625.44;;;22.70;39.10
16100;BME280;8154;50.830;12.082;2023-04-20T06:00:12;99623.59;;;22.70;39.21
16100;BME280;8154;50.830;12.082;2023-04-20T06:02:38;99626.41;;;22.84;38.81
16100;BME280;8154;50.830;12.082;2023-04-20T06:05:06;99629.34;;;22.74;39.33
16100;BME280;8154;50.830;12.082;2023-04-20T06:07:32;99621.53;;;22.72;39.35
16100;BME280;8154;50.830;12.082;2023-04-20T06:09:58;99619.25;;;22.69;39.46
16100;BME280;8154;50.830;12.082;2023-04-20T06:12:27;99619.25;;;22.69;39.30
16100;BME280;8154;50.830;12.082;2023-04-20T06:14:57;99615.97;;;22.67;39.69
16100;BME280;8154;50.830;12.082;2023-04-20T06:17:24;99620.94;;;22.70;39.57
16100;BME280;8154;50.830;12.082;2023-04-20T06:19:50;99620.09;;;22.70;39.59
16100;BME280;8154;50.830;12.082;2023-04-20T06:22:16;99625.63;;;22.68;39.54
16100;BME280;8154;50.830;12.082;2023-04-20T07:25:59;99628.69;;;22.87;39.63
16100;BME280;8154;50.830;12.082;2023-04-20T07:28:26;99632.00;;;22.89;39.47
16100;BME280;8154;50.830;12.082;2023-04-20T07:30:52;99626.69;;;22.89;39.33
16100;BME280;8154;50.830;12.082;2023-04-20T07:33:19;99625.13;;;22.94;39.37
16100;BME280;8154;50.830;12.082;2023-04-20T07:35:45;99624.28;;;22.94;39.35
16100;BME280;8154;50.830;12.082;2023-04-20T07:38:11;99628.78;;;22.93;39.28
16100;BME280;8154;50.830;12.082;2023-04-20T07:40:37;99627.94;;;22.93;39.30
16100;BME280;8154;50.830;12.082;2023-04-20T07:43:06;99625.28;;;22.93;39.30
16100;BME280;8154;50.830;12.082;2023-04-20T07:45:32;99627.78;;;22.94;39.18
16100;BME280;8154;50.830;12.082;2023-04-20T07:47:59;99623.06;;;22.96;38.92
16100;BME280;8154;50.830;12.082;2023-04-20T07:50:27;99628.22;;;22.98;39.13
16100;BME280;8154;50.830;12.082;2023-04-20T07:52:53;99625.34;;;22.99;39.00
16100;BME280;8154;50.830;12.082;2023-04-20T07:55:19;99615.25;;;22.95;39.17
16100;BME280;8154;50.830;12.082;2023-04-20T07:57:46;99623.25;;;22.95;39.34
16100;BME280;8154;50.830;12.082;2023-04-20T08:00:13;99626.56;;;22.97;39.13
16100;BME280;8154;50.830;12.082;2023-04-20T08:02:39;99631.53;;;23.00;39.11
16100;BME280;8154;50.830;12.082;2023-04-20T08:05:06;99635.03;;;23.00;39.19
16100;BME280;8154;50.830;12.082;2023-04-20T08:07:34;99630.69;;;22.99;39.01
16100;BME280;8154;50.830;12.082;2023-04-20T08:10:00;99636.41;;;22.96;39.26
16100;BME280;8154;50.830;12.082;2023-04-20T08:12:38;99641.53;;;22.98;39.19
16100;BME280;8154;50.830;12.082;2023-04-20T08:15:06;99638.69;;;22.99;38.98
16100;BME280;8154;50.830;12.082;2023-04-20T08:17:32;99640.16;;;23.02;39.02
16100;BME280;8154;50.830;12.082;2023-04-20T08:19:59;99641.16;;;23.01;38.91
16100;BME280;8154;50.830;12.082;2023-04-20T08:22:26;99633.53;;;22.98;39.08
16100;BME280;8154;50.830;12.082;2023-04-20T11:25:55;99541.00;;;22.92;38.55
16100;BME280;8154;50.830;12.082;2023-04-20T11:28:22;99546.34;;;22.92;38.57
16100;BME280;8154;50.830;12.082;2023-04-20T11:30:49;99540.38;;;22.90;38.69
16100;BME280;8154;50.830;12.082;2023-04-20T11:33:29;99542.22;;;22.89;38.65
16100;BME280;8154;50.830;12.082;2023-04-20T11:35:59;99541.38;;;22.89;38.50
16100;BME280;8154;50.830;12.082;2023-04-20T11:38:31;99547.75;;;22.88;38.60
16100;BME280;8154;50.830;12.082;2023-04-20T11:40:57;99544.69;;;22.91;38.30
16100;BME280;8154;50.830;12.082;2023-04-20T11:43:30;99549.19;;;22.90;38.47
16100;BME280;8154;50.830;12.082;2023-04-20T11:45:58;99550.22;;;22.89;38.68
16100;BME280;8154;50.830;12.082;2023-04-20T11:48:24;99545.09;;;22.88;38.48
16100;BME280;8154;50.830;12.082;2023-04-20T11:50:50;99535.03;;;22.90;38.52
16100;BME280;8154;50.830;12.082;2023-04-20T11:53:17;99538.72;;;22.89;38.60
16100;BME280;8154;50.830;12.082;2023-04-20T11:55:43;99540.56;;;22.88;38.63
16100;BME280;8154;50.830;12.082;2023-04-20T11:58:09;99544.69;;;22.91;38.32
16100;BME280;8154;50.830;12.082;2023-04-20T12:00:37;99536.91;;;22.89;38.49
16100;BME280;8154;50.830;12.082;2023-04-20T12:03:03;99543.22;;;22.88;38.34
16100;BME280;8154;50.830;12.082;2023-04-20T12:05:29;99541.78;;;22.86;38.45
16100;BME280;8154;50.830;12.082;2023-04-20T12:07:56;99543.78;;;22.84;38.57
16100;BME280;8154;50.830;12.082;2023-04-20T12:10:22;99536.25;;;22.87;38.59
16100;BME280;8154;50.830;12.082;2023-04-20T12:12:50;99541.00;;;22.92;38.46
16100;BME280;8154;50.830;12.082;2023-04-20T12:15:16;99538.53;;;22.90;38.46
16100;BME280;8154;50.830;12.082;2023-04-20T12:17:43;99546.53;;;22.90;38.41
16100;BME280;8154;50.830;12.082;2023-04-20T12:20:10;99543.41;;;22.87;38.38
16100;BME280;8154;50.830;12.082;2023-04-20T12:22:37;99532.75;;;22.87;38.53
16100;BME280;8154;50.830;12.082;2023-04-20T12:25:04;99541.78;;;22.86;38.49
16100;BME280;8154;50.830;12.082;2023-04-20T12:27:31;99537.28;;;22.86;38.22
16100;BME280;8154;50.830;12.082;2023-04-20T12:29:57;99546.06;;;22.87;38.18
16100;BME280;8154;50.830;12.082;2023-04-20T12:32:23;99547.94;;;22.86;38.31
16100;BME280;8154;50.830;12.082;2023-04-20T12:34:49;99538.09;;;22.87;38.41
16100;BME280;8154;50.830;12.082;2023-04-20T12:37:16;99539.09;;;22.86;38.32
16100;BME280;8154;50.830;12.082;2023-04-20T12:39:42;99532.31;;;22.83;38.45
16100;BME280;8154;50.830;12.082;2023-04-20T12:42:08;99535.19;;;22.82;38.40
16100;BME280;8154;50.830;12.082;2023-04-20T12:44:35;99530.66;;;22.82;38.31
16100;BME280;8154;50.830;12.082;2023-04-20T12:47:02;99523.69;;;22.81;38.49
16100;BME280;8154;50.830;12.082;2023-04-20T12:49:28;99513.88;;;22.82;38.38
16100;BME280;8154;50.830;12.082;2023-04-20T12:51:55;99517.72;;;22.79;38.54
16100;BME280;8154;50.830;12.082;2023-04-20T12:54:21;99507.06;;;22.79;38.43
16100;BME280;8154;50.830;12.082;2023-04-20T12:56:46;99505.22;;;22.80;38.47
16100;BME280;8154;50.830;12.082;2023-04-20T12:59:12;99496.41;;;22.79;38.60
16100;BME280;8154;50.830;12.082;2023-04-20T13:01:38;99494.56;;;22.80;38.51
16100;BME280;8154;50.830;12.082;2023-04-20T13:04:05;99501.72;;;22.79;38.32
16100;BME280;8154;50.830;12.082;2023-04-20T13:06:32;99494.56;;;22.80;38.37
16100;BME280;8154;50.830;12.082;2023-04-20T13:09:00;99493.53;;;22.81;38.31
16100;BME280;8154;50.830;12.082;2023-04-20T13:11:29;99479.78;;;22.77;38.62
16100;BME280;8154;50.830;12.082;2023-04-20T13:13:55;99485.53;;;22.81;38.27
16100;BME280;8154;50.830;12.082;2023-04-20T13:16:23;99481.88;;;22.82;38.19
16100;BME280;8154;50.830;12.082;2023-04-20T13:18:50;99488.47;;;22.86;38.23
16100;BME280;8154;50.830;12.082;2023-04-20T13:21:16;99488.66;;;22.84;38.37
16100;BME280;8154;50.830;12.082;2023-04-20T13:23:42;99473.69;;;22.83;38.19
16100;BME280;8154;50.830;12.082;2023-04-20T13:26:08;99482.69;;;22.82;38.33
16100;BME280;8154;50.830;12.082;2023-04-20T17:31:14;99447.47;;;22.87;37.62
16100;BME280;8154;50.830;12.082;2023-04-20T17:33:41;99443.44;;;22.91;37.67
16100;BME280;8154;50.830;12.082;2023-04-20T17:36:08;99440.88;;;22.83;37.78
16100;BME280;8154;50.830;12.082;2023-04-20T17:38:34;99441.84;;;22.75;37.83
16100;BME280;8154;50.830;12.082;2023-04-20T17:41:10;99442.84;;;22.74;38.00
16100;BME280;8154;50.830;12.082;2023-04-20T17:43:36;99446.72;;;22.71;38.08
16100;BME280;8154;50.830;12.082;2023-04-20T17:46:05;99449.00;;;22.74;37.86
16100;BME280;8154;50.830;12.082;2023-04-20T17:48:33;99444.00;;;22.65;38.14
16100;BME280;8154;50.830;12.082;2023-04-20T17:50:58;99445.47;;;22.67;38.12
16100;BME280;8154;50.830;12.082;2023-04-20T17:53:25;99435.25;;;22.71;37.98
16100;BME280;8154;50.830;12.082;2023-04-20T17:55:51;99436.72;;;22.73;37.91
16100;BME280;8154;50.830;12.082;2023-04-20T17:58:17;99441.53;;;22.85;37.65
16100;BME280;8154;50.830;12.082;2023-04-20T18:00:59;99443.44;;;22.91;37.60
16100;BME280;8154;50.830;12.082;2023-04-20T18:03:25;99443.72;;;23.02;37.36
16100;BME280;8154;50.830;12.082;2023-04-20T18:05:51;99446.47;;;22.88;37.58
16100;BME280;8154;50.830;12.082;2023-04-20T18:08:17;99448.50;;;22.86;37.83
16100;BME280;8154;50.830;12.082;2023-04-20T18:10:46;99458.59;;;22.90;37.75
16100;BME280;8154;50.830;12.082;2023-04-20T18:13:12;99452.03;;;22.93;37.54
16100;BME280;8154;50.830;12.082;2023-04-20T18:15:38;99449.75;;;22.90;37.75
16100;BME280;8154;50.830;12.082;2023-04-20T18:18:04;99458.38;;;22.92;37.47
16100;BME280;8154;50.830;12.082;2023-04-20T18:20:31;99462.59;;;22.80;37.67
16100;BME280;8154;50.830;12.082;2023-04-20T18:22:58;99468.69;;;22.73;37.97
16100;BME280;8154;50.830;12.082;2023-04-20T18:25:24;99458.66;;;22.76;38.05
16100;BME280;8154;50.830;12.082;2023-04-20T18:27:50;99467.84;;;22.73;37.93
16100;BME280;8154;50.830;12.082;2023-04-20T18:30:32;99464.41;;;22.79;37.86
16100;BME280;8154;50.830;12.082;2023-04-20T18:32:59;99472.03;;;22.82;37.86
16100;BME280;8154;50.830;12.082;2023-04-20T18:35:26;99468.31;;;22.77;37.88
16100;BME280;8154;50.830;12.082;2023-04-20T18:37:53;99465.19;;;22.73;37.85
16100;BME280;8154;50.830;12.082;2023-04-20T18:40:30;99472.00;;;22.76;37.83
16100;BME280;8154;50.830;12.082;2023-04-20T18:42:56;99480.09;;;22.89;37.53
16100;BME280;8154;50.830;12.082;2023-04-20T18:45:22;99471.13;;;22.96;37.54
16100;BME280;8154;50.830;12.082;2023-04-20T18:47:48;99475.03;;;22.94;37.45
16100;BME280;8154;50.830;12.082;2023-04-20T18:50:15;99479.66;;;22.85;37.74
16100;BME280;8154;50.830;12.082;2023-04-20T18:53:00;99477.38;;;22.82;37.69
16100;BME280;8154;50.830;12.082;2023-04-20T18:55:26;99481.25;;;22.80;37.81
16100;BME280;8154;50.830;12.082;2023-04-20T18:57:52;99476.41;;;22.90;37.67
16100;BME280;8154;50.830;12.082;2023-04-20T19:00:21;99486.53;;;22.94;37.65
16100;BME280;8154;50.830;12.082;2023-04-20T19:02:47;99474.63;;;22.97;37.29
16100;BME280;8154;50.830;12.082;2023-04-20T19:05:22;99476.47;;;22.96;37.27
16100;BME280;8154;50.830;12.082;2023-04-20T19:07:48;99477.56;;;23.02;37.46
16100;BME280;8154;50.830;12.082;2023-04-20T19:10:14;99484.66;;;22.95;37.42
16100;BME280;8154;50.830;12.082;2023-04-20T19:12:41;99477.56;;;22.81;37.55
16100;BME280;8154;50.830;12.082;2023-04-20T19:15:10;99475.72;;;22.81;37.83
16100;BME280;8154;50.830;12.082;2023-04-20T19:17:37;99478.06;;;22.91;37.50
16100;BME280;8154;50.830;12.082;2023-04-20T19:20:04;99461.81;;;22.86;37.52
16100;BME280;8154;50.830;12.082;2023-04-20T19:22:31;99473.25;;;22.80;37.79
16100;BME280;8154;50.830;12.082;2023-04-20T19:24:57;99464.22;;;22.81;37.68
16100;BME280;8154;50.830;12.082;2023-04-20T19:27:23;99462.28;;;22.89;37.50
16100;BME280;8154;50.830;12.082;2023-04-20T19:29:50;99468.00;;;22.86;37.42
16100;BME280;8154;50.830;12.082;2023-04-20T19:32:19;99464.63;;;22.77;37.88
16100;BME280;8154;50.830;12.082;2023-04-20T19:34:47;99471.34;;;22.73;37.78
16100;BME280;8154;50.830;12.082;2023-04-20T19:37:13;99470.66;;;22.86;37.66
16100;BME280;8154;50.830;12.082;2023-04-20T19:39:39;99465.19;;;22.94;37.44
16100;BME280;8154;50.830;12.082;2023-04-20T19:42:05;99468.28;;;22.98;37.46
16100;BME280;8154;50.830;12.082;2023-04-20T19:44:32;99466.06;;;23.01;37.40
16100;BME280;8154;50.830;12.082;2023-04-20T19:47:02;99460.19;;;22.85;37.53
16100;BME280;8154;50.830;12.082;2023-04-20T19:49:29;99454.59;;;22.80;37.84
16100;BME280;8154;50.830;12.082;2023-04-20T19:52:15;99452.41;;;22.90;37.49
16100;BME280;8154;50.830;12.082;2023-04-20T19:54:43;99453.25;;;22.90;37.36
16100;BME280;8154;50.830;12.082;2023-04-20T19:57:11;99458.91;;;22.81;37.85
16100;BME280;8154;50.830;12.082;2023-04-20T19:59:37;99448.19;;;22.74;37.71
16100;BME280;8154;50.830;12.082;2023-04-20T20:02:05;99459.63;;;22.89;37.34
16100;BME280;8154;50.830;12.082;2023-04-20T20:04:31;99454.53;;;22.94;37.29
16100;BME280;8154;50.830;12.082;2023-04-20T20:07:09;99456.44;;;22.79;37.84
16100;BME280;8154;50.830;12.082;2023-04-20T20:09:35;99445.69;;;22.72;37.93
16100;BME280;8154;50.830;12.082;2023-04-20T20:12:02;99448.50;;;22.86;37.50
16100;BME280;8154;50.830;12.082;2023-04-20T20:14:33;99444.22;;;22.91;37.56
16100;BME280;8154;50.830;12.082;2023-04-20T20:17:00;99445.78;;;23.00;37.37
16100;BME280;8154;50.830;12.082;2023-04-20T20:19:34;99440.06;;;23.03;37.32
16100;BME280;8154;50.830;12.082;2023-04-20T20:22:00;99446.28;;;22.89;37.51
16100;BME280;8154;50.830;12.082;2023-04-20T20:24:26;99445.38;;;22.82;37.52
16100;BME280;8154;50.830;12.082;2023-04-20T20:26:53;99454.97;;;22.98;37.34
16100;BME280;8154;50.830;12.082;2023-04-20T20:29:20;99443.91;;;23.01;37.28
16100;BME280;8154;50.830;12.082;2023-04-20T21:34:32;99430.09;;;22.91;37.37
16100;BME280;8154;50.830;12.082;2023-04-20T21:36:58;99430.63;;;22.80;37.61
16100;BME280;8154;50.830;12.082;2023-04-20T21:39:35;99432.84;;;22.76;37.74
16100;BME280;8154;50.830;12.082;2023-04-20T21:42:02;99429.06;;;22.92;37.42
16100;BME280;8154;50.830;12.082;2023-04-20T21:44:29;99436.09;;;22.99;37.09
16100;BME280;8154;50.830;12.082;2023-04-20T21:47:00;99435.31;;;22.99;37.31
16100;BME280;8154;50.830;12.082;2023-04-20T21:49:31;99431.16;;;22.96;37.33
16100;BME280;8154;50.830;12.082;2023-04-20T21:51:58;99433.09;;;22.81;37.65
16100;BME280;8154;50.830;12.082;2023-04-20T21:54:24;99435.69;;;22.74;37.83
16100;BME280;8154;50.830;12.082;2023-04-20T21:56:52;99434.34;;;22.85;37.56
16100;BME280;8154;50.830;12.082;2023-04-20T21:59:19;99439.34;;;22.95;37.20
16100;BME280;8154;50.830;12.082;2023-04-20T22:01:45;99442.91;;;23.02;37.20
16100;BME280;8154;50.830;12.082;2023-04-20T22:04:12;99443.53;;;23.04;36.96
16100;BME280;8154;50.830;12.082;2023-04-20T22:06:41;99449.34;;;22.86;37.41
16100;BME280;8154;50.830;12.082;2023-04-20T22:09:08;99449.06;;;22.81;37.49
16100;BME280;8154;50.830;12.082;2023-04-20T22:11:50;99443.44;;;22.91;37.41
16100;BME280;8154;50.830;12.082;2023-04-20T22:14:17;99450.06;;;23.01;37.27
16100;BME280;8154;50.830;12.082;2023-04-20T22:16:44;99446.66;;;22.86;37.31
16100;BME280;8154;50.830;12.082;2023-04-20T22:19:13;99446.59;;;22.80;37.60
16100;BME280;8154;50.830;12.082;2023-04-20T22:21:40;99450.78;;;22.89;37.39
16100;BME280;8154;50.830;12.082;2023-04-20T22:24:12;99451.63;;;22.89;37.46
16100;BME280;8154;50.830;12.082;2023-04-20T22:26:40;99469.75;;;22.79;37.53
16100;BME280;8154;50.830;12.082;2023-04-20T22:29:08;99462.72;;;22.71;37.82
16100;BME280;8154;50.830;12.082;2023-04-20T22:31:39;99460.19;;;22.85;37.42
